createdAt,value
2023-03-16T02:41:43.324Z,180.72
2023-03-16T02:42:43.331Z,180.54
2023-03-16T02:43:43.330Z,180.35
2023-03-16T02:44:43.312Z,180.42
2023-03-16T02:45:43.299Z,180.99
2023-03-16T02:46:43.399Z,181.19
2023-03-16T02:47:43.343Z,181.21
2023-03-16T02:48:43.302Z,181.38
2023-03-16T02:49:43.288Z,181.21
2023-03-16T02:50:43.274Z,181.45
2023-03-16T02:51:43.277Z,180.58
2023-03-16T02:52:43.270Z,180.50
2023-03-16T02:53:43.256Z,180.48
2023-03-16T02:54:43.247Z,181.16
2023-03-16T02:55:43.233Z,180.98
2023-03-16T02:56:43.219Z,181.01
2023-03-16T02:57:43.255Z,181.16
2023-03-16T02:58:43.217Z,181.65
2023-03-16T02:59:43.201Z,183.44
2023-03-16T03:00:43.189Z,184.62
2023-03-16T03:01:43.171Z,185.49
2023-03-16T03:02:43.164Z,186.95
2023-03-16T03:03:43.153Z,188.12
2023-03-16T03:04:43.164Z,188.69
2023-03-16T03:05:43.132Z,188.51
2023-03-16T03:06:43.138Z,190.68
2023-03-16T03:07:43.116Z,192.26
2023-03-16T03:08:43.108Z,192.82
2023-03-16T03:09:43.106Z,193.90
2023-03-16T03:10:43.094Z,194.86
2023-03-16T03:11:43.069Z,195.96
2023-03-16T03:12:43.072Z,196.33
2023-03-16T03:13:43.078Z,197.57
2023-03-16T03:14:43.044Z,197.92
2023-03-16T03:15:43.040Z,199.33
2023-03-16T03:16:43.058Z,200.13
2023-03-16T03:17:43.032Z,200.77
2023-03-16T03:18:43.017Z,200.35
2023-03-16T03:19:43.005Z,202.02
2023-03-16T03:20:42.983Z,202.04
2023-03-16T03:21:42.988Z,204.15
2023-03-16T03:22:42.964Z,203.65
2023-03-16T03:23:42.964Z,204.22
2023-03-16T03:24:42.945Z,205.99
2023-03-16T03:25:42.953Z,205.63
2023-03-16T03:26:42.922Z,205.86
2023-03-16T03:27:42.963Z,207.72
2023-03-16T03:28:42.916Z,207.36
2023-03-16T03:29:42.897Z,207.23
2023-03-16T03:30:42.881Z,208.58
2023-03-16T03:31:42.891Z,208.20
2023-03-16T03:32:42.890Z,209.08
2023-03-16T03:33:42.849Z,210.23
2023-03-16T03:34:42.834Z,210.29
2023-03-16T03:35:42.844Z,210.41
2023-03-16T03:36:42.813Z,210.80
2023-03-16T03:37:42.806Z,211.02
2023-03-16T03:38:42.797Z,211.90
2023-03-16T03:39:42.785Z,212.00
2023-03-16T03:40:42.762Z,213.14
2023-03-16T03:41:42.770Z,213.63
2023-03-16T03:42:42.758Z,213.88
2023-03-16T03:43:42.733Z,213.85
2023-03-16T03:44:42.720Z,214.51
2023-03-16T03:45:42.723Z,215.43
2023-03-16T03:46:42.821Z,214.81
2023-03-16T03:47:42.702Z,214.86
2023-03-16T03:48:42.684Z,216.04
2023-03-16T03:49:42.661Z,216.18
2023-03-16T03:50:42.653Z,216.49
2023-03-16T03:51:42.632Z,215.96
2023-03-16T03:52:42.628Z,216.01
2023-03-16T03:53:42.621Z,216.24
2023-03-16T03:54:42.595Z,216.08
2023-03-16T03:55:42.593Z,215.52
2023-03-16T03:56:42.573Z,214.19
2023-03-16T03:57:42.565Z,212.83
2023-03-16T03:58:42.549Z,211.08
2023-03-16T03:59:42.574Z,211.35
2023-03-16T04:00:42.539Z,209.99
2023-03-16T04:01:42.523Z,209.00
2023-03-16T04:02:42.653Z,208.39
2023-03-16T04:03:45.088Z,209.27
2023-03-16T04:04:42.765Z,208.48
2023-03-16T04:05:42.742Z,209.06
2023-03-16T04:06:42.721Z,208.48
2023-03-16T04:07:42.735Z,207.93
2023-03-16T04:08:42.717Z,206.82
2023-03-16T04:09:42.713Z,205.50
2023-03-16T04:10:42.709Z,205.32
2023-03-16T04:11:42.708Z,204.86
2023-03-16T04:12:42.697Z,202.94
2023-03-16T04:13:42.686Z,202.27
2023-03-16T04:14:42.680Z,202.31
2023-03-16T04:15:42.667Z,202.07
2023-03-16T04:16:42.663Z,202.10
2023-03-16T04:17:42.646Z,201.82
2023-03-16T04:18:42.630Z,201.25
2023-03-16T04:19:42.617Z,200.08
2023-03-16T04:20:42.595Z,199.56
2023-03-16T04:21:42.601Z,199.61
2023-03-16T04:22:42.573Z,199.57
2023-03-16T04:23:42.581Z,197.33
2023-03-16T04:24:42.567Z,198.62
2023-03-16T04:25:42.564Z,196.86
2023-03-16T04:26:42.533Z,197.41
2023-03-16T04:27:42.525Z,197.34
2023-03-16T04:28:42.506Z,196.53
2023-03-16T04:29:42.526Z,197.02
2023-03-16T04:30:42.506Z,195.17
2023-03-16T04:31:42.507Z,195.74
2023-03-16T04:32:42.491Z,195.56
2023-03-16T04:33:42.494Z,194.13
2023-03-16T04:34:42.443Z,193.92
2023-03-16T04:35:42.479Z,194.74
2023-03-16T04:36:42.414Z,194.81
2023-03-16T04:37:42.439Z,195.62
2023-03-16T04:38:42.388Z,195.73
2023-03-16T04:39:42.387Z,195.29
2023-03-16T04:40:42.377Z,195.15
2023-03-16T04:41:42.365Z,195.88
2023-03-16T04:42:42.355Z,194.79
2023-03-16T04:43:42.340Z,194.99
2023-03-16T04:44:42.332Z,194.49
2023-03-16T04:45:42.335Z,194.17
2023-03-16T04:46:42.349Z,195.04
2023-03-16T04:47:42.309Z,195.20
2023-03-16T04:48:42.306Z,195.88
2023-03-16T04:49:42.321Z,195.34
2023-03-16T04:50:42.293Z,195.62
2023-03-16T04:51:42.301Z,195.79
2023-03-16T04:52:42.300Z,196.78
2023-03-16T04:53:42.277Z,197.14
2023-03-16T04:54:42.272Z,195.66
2023-03-16T04:55:42.266Z,195.18
2023-03-16T04:56:42.249Z,195.48
2023-03-16T04:57:42.236Z,194.78
2023-03-16T04:58:42.228Z,193.92
2023-03-16T04:59:42.249Z,194.93
2023-03-16T05:00:42.216Z,194.14
2023-03-16T05:01:42.251Z,194.56
2023-03-16T05:02:42.197Z,194.76
2023-03-16T05:03:42.196Z,194.24
2023-03-16T05:04:42.199Z,193.35
2023-03-16T05:05:42.231Z,192.90
2023-03-16T05:06:42.158Z,192.68
2023-03-16T05:07:42.153Z,192.86
2023-03-16T05:08:42.132Z,193.22
2023-03-16T05:09:42.135Z,192.44
2023-03-16T05:10:42.105Z,193.43
2023-03-16T05:11:42.098Z,194.26
2023-03-16T05:12:42.078Z,195.00
2023-03-16T05:13:42.072Z,194.99
2023-03-16T05:14:42.065Z,195.04
2023-03-16T05:15:42.157Z,195.90
2023-03-16T05:16:42.044Z,196.60
2023-03-16T05:17:42.077Z,198.53
2023-03-16T05:18:42.030Z,199.93
2023-03-16T05:19:42.026Z,200.60
2023-03-16T05:20:42.007Z,201.14
2023-03-16T05:21:41.998Z,200.89
2023-03-16T05:22:41.986Z,201.65
2023-03-16T05:23:41.982Z,202.88
2023-03-16T05:24:41.973Z,204.36
2023-03-16T05:25:41.962Z,204.21
2023-03-16T05:26:41.962Z,205.15
2023-03-16T05:27:41.942Z,206.43
2023-03-16T05:28:41.937Z,206.34
2023-03-16T05:29:41.919Z,207.44
2023-03-16T05:30:41.932Z,208.30
2023-03-16T05:31:41.917Z,209.14
2023-03-16T05:32:41.921Z,209.50
2023-03-16T05:33:41.887Z,209.32
2023-03-16T05:34:41.864Z,210.41
2023-03-16T05:35:41.880Z,211.27
2023-03-16T05:36:41.841Z,211.24
2023-03-16T05:37:41.865Z,210.85
2023-03-16T05:38:41.839Z,212.81
2023-03-16T05:39:41.826Z,213.33
2023-03-16T05:40:41.798Z,212.64
2023-03-16T05:41:41.794Z,213.81
2023-03-16T05:42:41.775Z,214.95
2023-03-16T05:43:41.783Z,214.62
2023-03-16T05:44:41.800Z,214.93
2023-03-16T05:45:41.764Z,215.51
2023-03-16T05:46:41.826Z,215.97
2023-03-16T05:47:41.759Z,216.38
2023-03-16T05:48:41.711Z,215.72
2023-03-16T05:49:41.712Z,217.12
2023-03-16T05:50:41.689Z,217.41
2023-03-16T05:53:41.676Z,217.91
2023-03-16T09:55:36.500Z,175.85
2023-03-16T09:56:36.464Z,158.43
2023-03-16T09:57:36.428Z,129.02
2023-03-16T09:58:36.403Z,110.68
2023-03-16T09:59:36.376Z,104.00
2023-03-16T10:00:36.469Z,97.43
2023-03-16T10:01:36.388Z,104.56
2023-03-16T10:02:36.324Z,109.85
2023-03-16T10:03:36.331Z,108.14
2023-03-16T10:04:36.275Z,115.48
2023-03-16T10:05:36.249Z,110.71
2023-03-16T10:06:36.217Z,109.02
2023-03-16T10:07:36.187Z,106.08
2023-03-16T10:08:36.180Z,93.04
2023-03-16T10:09:36.163Z,89.84
2023-03-16T10:10:36.158Z,90.75
2023-03-16T10:11:36.120Z,91.11
2023-03-16T10:12:36.097Z,93.42
2023-03-16T10:13:36.085Z,93.39
2023-03-16T10:14:36.096Z,92.67
2023-03-16T10:15:36.074Z,96.38
2023-03-16T10:16:36.125Z,103.82
2023-03-16T10:17:36.078Z,75.91
2023-03-16T10:18:36.124Z,58.82
2023-03-16T10:19:35.968Z,55.91
2023-03-16T10:20:36.067Z,56.31
2023-03-16T10:21:36.001Z,49.25
2023-03-16T10:22:35.893Z,43.13
2023-03-16T10:23:36.002Z,40.30
2023-03-16T10:24:36.057Z,44.63
2023-03-16T10:25:35.956Z,53.96
2023-03-16T10:26:35.845Z,66.23
2023-03-16T10:27:36.085Z,72.88
2023-03-16T10:28:35.836Z,78.93
2023-03-16T10:29:35.874Z,86.18
2023-03-16T10:30:35.818Z,93.72
2023-03-16T10:31:35.795Z,103.44
2023-03-16T10:32:35.754Z,111.17
2023-03-16T10:33:35.677Z,115.63
2023-03-16T10:34:35.649Z,112.07
2023-03-16T10:35:35.658Z,118.52
2023-03-16T10:36:35.649Z,123.01
2023-03-16T10:37:35.619Z,115.72
2023-03-16T10:38:35.558Z,105.27
2023-03-16T10:39:35.549Z,95.74
2023-03-16T10:40:35.523Z,92.54
2023-03-16T10:41:35.516Z,104.20
2023-03-16T10:42:35.455Z,113.33
2023-03-16T10:43:35.456Z,119.41
2023-03-16T10:44:35.421Z,127.91
2023-03-16T10:45:35.409Z,128.18
2023-03-16T10:46:35.488Z,129.75
2023-03-16T10:47:35.325Z,133.59
2023-03-16T10:48:35.340Z,140.63
2023-03-16T10:49:35.298Z,151.35
2023-03-16T10:50:35.306Z,156.01
2023-03-16T10:51:35.234Z,158.71
2023-03-16T10:52:35.280Z,160.65
2023-03-16T10:53:35.201Z,163.39
2023-03-16T10:54:35.145Z,167.12
2023-03-16T10:55:35.124Z,170.29
2023-03-16T10:56:35.107Z,172.62
2023-03-16T10:57:35.072Z,174.65
2023-03-16T10:58:35.033Z,176.16
2023-03-16T10:59:35.104Z,178.18
2023-03-16T11:00:34.981Z,180.01
2023-03-16T11:01:34.970Z,181.81
2023-03-16T11:02:34.923Z,183.45
2023-03-16T11:03:37.067Z,185.38
2023-03-16T11:04:34.900Z,187.17
2023-03-16T11:05:34.795Z,188.85
2023-03-16T11:06:34.758Z,190.45
2023-03-16T11:07:34.735Z,191.29
2023-03-16T11:08:34.696Z,192.70
2023-03-16T11:09:34.656Z,193.88
2023-03-16T11:10:40.438Z,194.85
2023-03-16T11:11:35.559Z,194.93
2023-03-16T11:12:34.520Z,195.44
2023-03-16T11:13:34.516Z,196.44
2023-03-16T11:14:34.444Z,198.67
2023-03-16T11:15:34.448Z,204.83
2023-03-16T11:16:34.483Z,206.89
2023-03-16T11:17:34.300Z,209.67
2023-03-16T11:18:34.293Z,210.31
2023-03-16T11:19:34.298Z,210.40
2023-03-16T11:20:34.200Z,211.23
2023-03-16T11:21:34.168Z,211.96
2023-03-16T11:22:34.110Z,212.92
2023-03-16T11:23:34.073Z,213.99
2023-03-16T11:24:34.028Z,214.61
2023-03-16T11:25:34.005Z,214.91
2023-03-16T11:26:33.941Z,215.20
2023-03-16T11:27:33.911Z,216.04
2023-03-16T11:28:33.900Z,216.51
2023-03-16T11:29:33.825Z,217.00
2023-03-16T11:30:33.806Z,217.05
2023-03-16T11:31:33.823Z,217.09
2023-03-16T11:32:33.732Z,217.33
2023-03-16T11:33:33.674Z,217.58
2023-03-16T11:34:33.653Z,218.09
2023-03-16T11:35:33.654Z,218.28
2023-03-16T11:36:33.547Z,218.33
2023-03-16T11:37:33.507Z,218.46
2023-03-16T11:38:33.487Z,218.64
2023-03-16T11:39:33.417Z,218.80
2023-03-16T11:40:33.395Z,219.39
2023-03-16T11:41:33.342Z,218.37
2023-03-16T11:42:33.317Z,218.60
2023-03-16T11:43:33.255Z,218.81
2023-03-16T11:44:33.224Z,219.03
2023-03-16T11:45:33.334Z,220.10
2023-03-16T11:46:33.312Z,219.93
2023-03-16T11:47:33.083Z,220.38
2023-03-16T11:48:33.367Z,219.50
2023-03-16T11:49:33.072Z,219.86
2023-03-16T11:50:32.963Z,220.07
2023-03-16T11:51:33.519Z,220.23
2023-03-16T11:52:32.928Z,219.59
2023-03-16T11:53:32.853Z,218.85
2023-03-16T11:54:32.790Z,218.90
2023-03-16T11:55:32.781Z,218.97
2023-03-16T11:56:32.721Z,218.94
2023-03-16T11:57:32.796Z,219.03
2023-03-16T11:58:32.670Z,218.82
2023-03-16T11:59:32.644Z,218.49
2023-03-16T12:00:32.688Z,218.31
2023-03-16T12:01:32.570Z,218.46
2023-03-16T12:02:32.648Z,218.32
2023-03-16T12:03:32.588Z,218.37
2023-03-16T12:04:35.040Z,218.23
2023-03-16T12:05:32.593Z,218.51
2023-03-16T12:06:32.594Z,218.02
2023-03-16T12:07:32.575Z,217.83
2023-03-16T12:08:32.470Z,217.96
2023-03-16T12:09:32.463Z,217.74
2023-03-16T12:10:32.396Z,217.23
2023-03-16T12:11:32.368Z,216.75
2023-03-16T12:12:32.332Z,217.01
2023-03-16T12:13:32.293Z,216.55
2023-03-16T12:14:32.266Z,216.39
2023-03-16T12:15:32.476Z,216.55
2023-03-16T12:16:46.312Z,215.93
2023-03-16T12:17:33.137Z,215.93
2023-03-16T12:18:32.098Z,213.72
2023-03-16T12:19:32.070Z,213.42
2023-03-16T12:20:32.044Z,213.49
2023-03-16T12:21:32.034Z,213.51
2023-03-16T12:22:31.972Z,213.47
2023-03-16T12:23:31.948Z,212.95
2023-03-16T12:24:31.917Z,212.78
2023-03-16T12:25:31.916Z,212.48
2023-03-16T12:26:31.907Z,211.76
2023-03-16T12:27:31.821Z,209.88
2023-03-16T12:28:31.827Z,209.13
2023-03-16T12:29:32.866Z,207.47
2023-03-16T12:30:31.708Z,207.54
2023-03-16T13:45:52.914Z,25.00
2023-03-16T13:46:17.229Z,25.00
2023-03-16T13:47:19.910Z,25.00
2023-03-16T13:48:17.168Z,25.00
2023-03-16T13:49:17.152Z,25.00
2023-03-16T13:50:17.114Z,25.00
2023-03-16T13:51:17.089Z,25.00
2023-03-16T13:52:17.082Z,25.00
2023-03-16T13:53:17.068Z,25.36
2023-03-16T13:54:17.043Z,27.02
2023-03-16T13:55:17.032Z,25.80
2023-03-16T13:56:16.998Z,27.29
2023-03-16T13:57:16.964Z,25.57
2023-03-16T13:58:16.945Z,29.96
2023-03-16T13:59:16.929Z,26.27
2023-03-16T14:00:16.896Z,25.05
2023-03-16T14:01:16.929Z,29.48
2023-03-16T14:02:16.944Z,27.90
2023-03-16T14:03:16.871Z,27.22
2023-03-16T14:04:16.841Z,25.00
2023-03-16T14:05:16.805Z,29.85
2023-03-16T14:06:16.797Z,27.12
2023-03-16T14:07:16.774Z,28.02
2023-03-16T14:08:16.741Z,28.34
2023-03-16T14:09:16.740Z,29.48
2023-03-16T14:10:16.702Z,25.01
2023-03-16T14:11:16.674Z,27.73
2023-03-16T14:12:16.661Z,28.62
2023-03-16T14:13:16.648Z,27.55
2023-03-16T14:14:16.619Z,27.28
2023-03-16T14:15:16.604Z,29.57
2023-03-16T14:16:16.685Z,28.80
2023-03-16T14:17:16.552Z,30.12
2023-03-16T14:18:16.581Z,27.80
2023-03-16T14:19:16.541Z,30.50
2023-03-16T14:20:16.491Z,26.91
2023-03-16T14:21:16.483Z,28.87
2023-03-16T14:22:16.451Z,26.86
2023-03-16T14:23:16.446Z,28.88
2023-03-16T14:24:16.447Z,28.56
2023-03-16T14:25:16.398Z,29.11
2023-03-16T14:26:16.375Z,28.26
2023-03-16T14:27:16.355Z,27.80
2023-03-16T14:28:16.334Z,26.87
2023-03-16T14:29:16.343Z,28.57
2023-03-16T14:30:16.309Z,30.46
2023-03-16T14:31:16.373Z,28.77
2023-03-16T14:32:16.264Z,28.67
2023-03-16T14:33:16.241Z,28.14
2023-03-16T14:34:16.312Z,26.76
2023-03-16T14:35:16.219Z,30.14
2023-03-16T14:36:16.237Z,25.08
2023-03-16T14:37:16.166Z,27.91
2023-03-16T14:38:16.189Z,29.86
2023-03-16T14:39:16.114Z,25.00
2023-03-16T14:40:16.085Z,27.25
2023-03-16T14:41:16.071Z,26.43
2023-03-16T14:42:16.043Z,26.94
2023-03-16T14:43:16.054Z,26.88
2023-03-16T14:44:17.261Z,28.37
2023-03-16T14:45:15.996Z,26.87
2023-03-16T14:46:16.023Z,26.21
2023-03-16T14:47:15.939Z,26.20
2023-03-16T14:48:15.911Z,25.38
2023-03-16T14:49:15.892Z,26.30
2023-03-16T14:50:15.874Z,27.54
2023-03-16T14:51:15.853Z,26.75
2023-03-16T14:52:15.844Z,29.69
2023-03-16T14:53:15.818Z,30.32
2023-03-16T14:54:15.873Z,32.55
2023-03-16T14:55:15.781Z,27.81
2023-03-16T14:56:15.756Z,27.60
2023-03-16T14:57:15.745Z,26.61
2023-03-16T14:58:15.721Z,27.58
2023-03-16T14:59:15.728Z,27.37
2023-03-16T15:00:15.697Z,30.27
2023-03-16T15:01:15.732Z,28.92
2023-03-16T15:02:15.665Z,29.13
2023-03-16T15:03:15.694Z,28.38
2023-03-16T15:04:15.637Z,30.74
2023-03-16T15:05:15.656Z,28.84
2023-03-16T15:06:15.581Z,28.06
2023-03-16T15:07:15.595Z,29.46
2023-03-16T15:08:15.558Z,27.83
2023-03-16T15:09:15.563Z,26.63
2023-03-16T15:10:15.504Z,27.36
2023-03-16T15:11:15.499Z,26.25
2023-03-16T15:12:15.470Z,28.19
2023-03-16T15:13:15.473Z,28.61
2023-03-16T15:14:15.515Z,27.71
2023-03-16T15:15:15.432Z,27.54
2023-03-16T15:16:15.536Z,25.44
2023-03-16T15:17:15.421Z,26.72
2023-03-16T15:18:15.365Z,27.08
2023-03-16T15:19:15.354Z,25.88
2023-03-16T15:20:15.353Z,25.79
2023-03-16T15:21:15.326Z,26.92
2023-03-16T15:22:15.289Z,27.56
2023-03-16T15:23:15.284Z,27.36
2023-03-16T15:24:15.250Z,26.48
2023-03-16T15:25:15.250Z,26.09
2023-03-16T15:26:15.225Z,27.36
2023-03-16T15:27:15.196Z,27.37
2023-03-16T15:28:15.193Z,29.62
2023-03-16T15:29:15.163Z,27.23
2023-03-16T15:30:15.193Z,27.39
2023-03-16T15:31:15.150Z,26.18
2023-03-16T15:32:15.125Z,27.77
2023-03-16T15:33:15.095Z,25.09
2023-03-16T15:34:15.067Z,28.14
2023-03-16T15:35:15.075Z,27.28
2023-03-16T15:36:15.057Z,25.46
2023-03-16T15:37:15.099Z,27.10
2023-03-16T15:38:15.037Z,26.64
2023-03-16T15:39:15.000Z,25.63
2023-03-16T15:40:15.036Z,26.74
2023-03-16T15:41:14.958Z,26.16
2023-03-16T15:42:14.935Z,27.69
2023-03-16T15:43:14.926Z,26.17
2023-03-16T15:44:14.920Z,25.04
2023-03-16T15:45:14.908Z,26.39
2023-03-16T15:46:14.968Z,26.40
2023-03-16T15:47:14.854Z,25.95
2023-03-16T15:48:14.810Z,25.51
2023-03-16T15:49:14.809Z,25.00
2023-03-16T15:50:14.797Z,26.16
2023-03-16T15:51:14.782Z,25.93
2023-03-16T15:52:14.766Z,26.12
2023-03-16T15:53:29.213Z,27.79
2023-03-16T15:54:15.740Z,27.92
2023-03-16T15:55:14.700Z,28.35
2023-03-16T15:56:14.677Z,27.74
2023-03-16T15:57:14.668Z,26.66
2023-03-16T15:58:14.659Z,26.78
2023-03-16T15:59:14.619Z,26.95
2023-03-16T16:00:14.628Z,25.00
2023-03-16T16:01:14.661Z,26.11
2023-03-16T16:02:14.589Z,26.02
2023-03-16T16:03:14.560Z,28.64
2023-03-16T16:04:14.638Z,27.54
2023-03-16T16:05:14.563Z,27.93
2023-03-16T16:06:14.534Z,27.70
2023-03-16T16:07:14.524Z,25.87
2023-03-16T16:08:14.511Z,28.94
2023-03-16T16:09:14.492Z,30.33
2023-03-16T16:10:14.480Z,30.96
2023-03-16T16:11:14.477Z,28.37
2023-03-16T16:12:14.443Z,28.88
2023-03-16T16:13:14.432Z,30.21
2023-03-16T16:14:14.433Z,29.20
2023-03-16T16:15:14.417Z,30.53
2023-03-16T16:16:14.474Z,25.00
2023-03-16T16:17:14.367Z,29.88
2023-03-16T16:18:21.192Z,28.28
2023-03-16T16:19:15.363Z,28.51
2023-03-16T16:20:14.350Z,29.29
2023-03-16T16:21:14.362Z,29.77
2023-03-16T16:22:14.307Z,26.54
2023-03-16T16:23:14.297Z,27.27
2023-03-16T16:24:14.297Z,29.97
2023-03-16T16:25:14.289Z,25.00
2023-03-16T16:26:14.261Z,25.00
2023-03-16T16:27:14.252Z,30.07
2023-03-16T16:28:14.226Z,25.57
2023-03-16T16:29:14.212Z,26.92
2023-03-16T16:30:14.203Z,33.62
2023-03-16T16:31:14.186Z,33.59
2023-03-16T16:32:14.170Z,29.73
2023-03-16T16:33:14.196Z,29.47
2023-03-16T16:34:14.128Z,28.71
2023-03-16T16:35:14.127Z,25.30
2023-03-16T16:36:14.097Z,25.00
2023-03-16T16:37:14.093Z,27.96
2023-03-16T16:38:14.146Z,30.22
2023-03-16T16:39:14.094Z,27.39
2023-03-16T16:40:14.043Z,31.47
2023-03-16T16:41:14.039Z,25.73
2023-03-16T16:42:14.034Z,28.21
2023-03-16T16:43:14.039Z,29.08
2023-03-16T16:44:14.019Z,26.61
2023-03-16T16:45:14.008Z,28.09
2023-03-16T16:46:14.114Z,29.57
2023-03-16T16:47:13.991Z,25.31
2023-03-16T16:48:13.978Z,27.00
2023-03-16T16:49:13.980Z,27.77
2023-03-16T16:50:14.156Z,30.86
2023-03-16T16:51:13.955Z,25.41
2023-03-16T16:52:13.944Z,26.66
2023-03-16T16:53:13.918Z,25.04
2023-03-16T16:54:13.911Z,26.36
2023-03-16T16:55:13.914Z,28.23
2023-03-16T16:56:13.896Z,26.92
2023-03-16T16:57:13.881Z,25.00
2023-03-16T16:58:23.884Z,27.90
2023-03-16T16:59:14.895Z,28.12
2023-03-16T17:00:13.859Z,28.34
2023-03-16T17:01:13.879Z,28.61
2023-03-16T17:02:13.830Z,27.38
2023-03-16T17:03:13.826Z,30.92
2023-03-16T17:04:13.810Z,27.05
2023-03-16T17:05:13.786Z,27.92
2023-03-16T17:06:13.780Z,29.76
2023-03-16T17:07:13.759Z,28.92
2023-03-16T17:08:13.728Z,29.06
2023-03-16T17:09:13.725Z,29.82
2023-03-16T17:10:16.316Z,28.59
2023-03-16T17:11:13.679Z,31.24
2023-03-16T17:12:13.662Z,32.65
2023-03-16T17:13:13.643Z,28.53
2023-03-16T17:14:13.632Z,26.99
2023-03-16T17:15:13.781Z,29.35
2023-03-16T17:16:16.483Z,29.33
2023-03-16T17:17:13.669Z,29.50
2023-03-16T17:18:13.574Z,29.79
2023-03-16T17:19:13.597Z,30.44
2023-03-16T17:20:13.549Z,29.75
2023-03-16T17:21:13.589Z,30.32
2023-03-16T17:22:16.092Z,29.96
2023-03-16T17:23:13.548Z,30.13
2023-03-16T17:24:13.530Z,30.27
2023-03-16T17:25:13.499Z,30.41
2023-03-16T17:26:13.529Z,27.70
2023-03-16T17:27:13.465Z,26.74
2023-03-16T17:28:16.378Z,29.72
2023-03-16T17:29:13.458Z,29.88
2023-03-16T17:30:13.439Z,29.85
2023-03-16T17:31:13.540Z,25.75
2023-03-16T17:32:13.417Z,29.57
2023-03-16T17:33:13.401Z,28.03
2023-03-16T17:34:15.405Z,25.00
2023-03-16T17:35:13.378Z,25.27
2023-03-16T17:36:13.434Z,25.93
2023-03-16T17:37:13.368Z,26.57
2023-03-16T17:38:13.350Z,25.79
2023-03-16T17:39:13.337Z,28.17
2023-03-16T17:40:15.369Z,27.08
2023-03-16T17:41:13.310Z,27.23
2023-03-16T17:42:13.308Z,27.18
2023-03-16T17:43:13.307Z,27.74
2023-03-16T17:44:13.303Z,28.64
2023-03-16T17:45:13.286Z,28.76
2023-03-16T17:46:15.555Z,26.88
2023-03-16T17:47:13.267Z,27.11
2023-03-16T17:48:13.250Z,27.24
2023-03-16T17:49:13.249Z,27.13
2023-03-16T17:50:13.240Z,26.57
2023-03-16T17:51:13.238Z,26.82
2023-03-16T17:52:13.228Z,29.47
2023-03-16T17:53:13.207Z,25.68
2023-03-16T17:54:13.196Z,28.16
2023-03-16T17:55:13.179Z,29.34
2023-03-16T17:56:13.164Z,25.00
2023-03-16T17:57:13.177Z,28.28
2023-03-16T17:58:14.448Z,30.01
2023-03-16T17:59:13.145Z,30.10
2023-03-16T18:00:13.119Z,30.31
2023-03-16T18:01:13.115Z,30.38
2023-03-16T18:02:13.100Z,30.85
2023-03-16T18:03:13.164Z,29.03
2023-03-16T18:04:13.092Z,32.32
2023-03-16T18:05:13.099Z,26.18
2023-03-16T18:06:13.104Z,29.16
2023-03-16T18:07:13.100Z,29.49
2023-03-16T18:08:13.071Z,28.78
2023-03-16T18:09:13.062Z,28.93
2023-03-16T18:10:13.048Z,29.19
2023-03-16T18:11:13.043Z,28.35
2023-03-16T18:12:13.038Z,28.79
2023-03-16T18:13:13.020Z,26.94
2023-03-16T18:14:14.965Z,26.39
2023-03-16T18:15:13.000Z,26.53
2023-03-16T18:16:13.021Z,26.63
2023-03-16T18:17:12.999Z,27.23
2023-03-16T18:18:12.976Z,27.83
2023-03-16T18:19:12.971Z,26.55
2023-03-16T18:20:14.573Z,27.13
2023-03-16T18:21:12.947Z,28.11
2023-03-16T18:22:12.943Z,28.13
2023-03-16T18:23:12.930Z,27.38
2023-03-16T18:24:12.914Z,27.52
2023-03-16T18:25:12.911Z,27.15
2023-03-16T18:26:12.903Z,26.47
2023-03-16T18:27:12.905Z,28.12
2023-03-16T18:28:12.879Z,28.98
2023-03-16T18:29:12.873Z,25.79
2023-03-16T18:30:12.874Z,29.46
2023-03-16T18:31:12.913Z,26.83
2023-03-16T18:32:12.844Z,27.06
2023-03-16T18:33:12.837Z,26.47
2023-03-16T18:34:12.814Z,27.87
2023-03-16T18:35:12.813Z,27.85
2023-03-16T18:36:12.878Z,28.55
2023-03-16T18:37:12.790Z,29.30
2023-03-16T18:38:12.795Z,26.97
2023-03-16T18:39:12.762Z,28.73
2023-03-16T18:40:12.770Z,29.09
2023-03-16T18:41:12.746Z,28.86
2023-03-16T18:42:12.761Z,26.23
2023-03-16T18:43:12.732Z,29.45
2023-03-16T18:44:12.750Z,28.62
2023-03-16T18:45:12.700Z,25.00
2023-03-16T18:46:12.747Z,28.83
2023-03-16T18:47:12.756Z,27.62
2023-03-16T18:48:12.672Z,28.46
2023-03-16T18:49:12.657Z,30.56
2023-03-16T18:50:12.640Z,25.85
2023-03-16T18:51:12.625Z,26.83
2023-03-16T18:52:12.619Z,27.23
2023-03-16T18:53:12.613Z,27.65
2023-03-16T18:54:12.586Z,27.55
2023-03-16T18:55:12.582Z,27.91
2023-03-16T18:56:12.566Z,28.39
2023-03-16T18:57:12.567Z,28.59
2023-03-16T18:58:12.552Z,28.48
2023-03-16T18:59:12.551Z,25.02
2023-03-16T19:00:12.545Z,27.61
2023-03-16T19:01:12.568Z,28.37
2023-03-16T19:02:12.557Z,30.42
2023-03-16T19:03:12.497Z,30.24
2023-03-16T19:04:12.508Z,29.83
2023-03-16T19:05:12.465Z,29.03
2023-03-16T19:06:12.459Z,28.46
2023-03-16T19:07:12.442Z,28.93
2023-03-16T19:08:12.443Z,28.28
2023-03-16T19:09:12.436Z,28.09
2023-03-16T19:10:12.432Z,29.57
2023-03-16T19:11:12.415Z,27.35
2023-03-16T19:12:12.403Z,30.21
2023-03-16T19:13:12.400Z,29.00
2023-03-16T19:14:12.385Z,30.72
2023-03-16T19:15:12.365Z,28.76
2023-03-16T19:16:12.390Z,27.53
2023-03-16T19:17:12.365Z,31.22
2023-03-16T19:18:12.356Z,31.35
2023-03-16T19:19:12.341Z,31.04
2023-03-16T19:20:12.324Z,29.13
2023-03-16T19:21:12.321Z,31.14
2023-03-16T19:22:12.313Z,28.57
2023-03-16T19:23:12.293Z,31.34
2023-03-16T19:24:12.285Z,27.80
2023-03-16T19:25:12.270Z,25.61
2023-03-16T19:26:12.278Z,28.38
2023-03-16T19:27:12.249Z,28.97
2023-03-16T19:28:12.255Z,28.80
2023-03-16T19:29:12.234Z,29.66
2023-03-16T19:30:12.226Z,26.68
2023-03-16T19:31:12.226Z,29.50
2023-03-16T19:32:12.204Z,31.64
2023-03-16T19:33:12.210Z,31.05
2023-03-16T19:34:12.194Z,29.86
2023-03-16T19:35:12.179Z,28.32
2023-03-16T19:36:12.214Z,29.25
2023-03-16T19:37:12.166Z,28.08
2023-03-16T19:38:12.172Z,28.34
2023-03-16T19:39:12.146Z,28.45
2023-03-16T19:40:12.136Z,28.76
2023-03-16T19:41:12.125Z,27.52
2023-03-16T19:42:12.108Z,26.70
2023-03-16T19:43:12.098Z,31.09
2023-03-16T19:44:12.081Z,29.21
2023-03-16T19:45:12.097Z,30.06
2023-03-16T19:46:12.093Z,29.77
2023-03-16T19:47:12.051Z,26.60
2023-03-16T19:48:12.051Z,27.71
2023-03-16T19:49:12.036Z,26.05
2023-03-16T19:50:12.037Z,28.92
2023-03-16T19:51:12.033Z,29.76
2023-03-16T19:52:12.008Z,29.08
2023-03-16T19:53:11.999Z,28.95
2023-03-16T19:54:11.987Z,27.39
2023-03-16T19:55:11.984Z,28.24
2023-03-16T19:56:11.976Z,29.67
2023-03-16T19:57:11.956Z,28.88
2023-03-16T19:58:11.960Z,26.57
2023-03-16T19:59:11.950Z,29.15
2023-03-16T20:00:11.938Z,29.16
2023-03-16T20:01:11.997Z,28.18
2023-03-16T20:02:11.932Z,29.14
2023-03-16T20:03:11.941Z,29.31
2023-03-16T20:04:11.968Z,29.42
2023-03-16T20:05:11.918Z,29.82
2023-03-16T20:06:11.911Z,29.97
2023-03-16T20:07:11.916Z,27.80
2023-03-16T20:08:11.898Z,27.79
2023-03-16T20:09:11.899Z,28.63
2023-03-16T20:10:11.928Z,28.87
2023-03-16T20:11:11.881Z,26.10
2023-03-16T20:12:11.888Z,26.13
2023-03-16T20:13:11.857Z,31.67
2023-03-16T20:14:11.871Z,26.96
2023-03-16T20:15:11.842Z,28.78
2023-03-16T20:16:11.836Z,28.48
2023-03-16T20:17:11.871Z,27.73
2023-03-16T20:18:11.818Z,25.00
2023-03-16T20:19:11.822Z,29.17
2023-03-16T20:20:11.815Z,29.23
2023-03-16T20:21:11.789Z,31.69
2023-03-16T20:22:11.785Z,27.51
2023-03-16T20:23:11.784Z,27.77
2023-03-16T20:24:11.765Z,30.56
2023-03-16T20:25:11.764Z,29.66
2023-03-16T20:26:11.753Z,28.56
2023-03-16T20:27:11.730Z,29.22
2023-03-16T20:28:11.732Z,29.89
2023-03-16T20:29:11.724Z,29.91
2023-03-16T20:30:11.698Z,29.65
2023-03-16T20:31:11.715Z,29.09
2023-03-16T20:32:11.694Z,31.73
2023-03-16T20:33:11.673Z,29.50
2023-03-16T20:34:11.693Z,30.71
2023-03-16T20:35:11.662Z,27.67
2023-03-16T20:36:11.789Z,30.93
2023-03-16T20:37:11.641Z,29.79
2023-03-16T20:38:11.636Z,27.48
2023-03-16T20:39:11.635Z,28.81
2023-03-16T20:40:11.624Z,28.33